KNRB/NRB METAR and TAF weather

Enter ICAO airport designator
Station Type Date Time Source
KNRB METAR 2022/06/28 14:52 UTC NOAA

KNRB 281452Z 12005KT 10SM TS SCT025CB BKN070 BKN250 29/23 A3013 RMK AO2 TSB45 SLP200 OCNL LTGICCG VC E TS E MOV N T1 SET T02890228 51009


Station Type Date Time Source
KNRB Decoded METAR 2022/06/28 14:52 UTC NOAA

MAYPORT NAVAL AIR FACILITY, FL, United States (KNRB) 30-24N 81-25W 4M
Jun 28, 2022 - 10:52 AM EDT / 2022.06.28 1452 UTC
Wind: from the ESE (120 degrees) at 6 MPH (5 KT):0
Visibility: 10 mile(s):0
Sky conditions: mostly cloudy
Weather: thunder; Cumulonimbus clouds, lightning observed
Temperature: 84.0 F (28.9 C)
Dew Point: 73.0 F (22.8 C)
Relative Humidity: 69%
Pressure (altimeter): 30.13 in. Hg (1020 hPa)
Pressure tendency: 0.03 inches (0.9 hPa) higher than three hours ago
ob: KNRB 281452Z 12005KT 10SM TS SCT025CB BKN070 BKN250 29/23 A3013 RMK AO2 TSB45 SLP200 OCNL LTGICCG VC E TS E MOV N T1 SET T02890228 51009
cycle: 15

Station Type Date Time Source
KNRB TAF 2022/06/28 07:08 UTC NOAA

TAF KNRB 2807/2907 14006KT 9999 FEW030 SCT250 QNH3000INS
BECMG 2811/2813 15015G20KT 9999 VCTS SCT020CB BKN050 BKN250 QNH3001INS
TEMPO 2814/2820 VRB25G35KT 4800 -TSRA BKN020CB BKN050 OVC250
BECMG 2900/2902 12010KT 9999 VCTS SCT020CB BKN050 BKN250 QNH3001INS T24/2811Z T31/2819Z FN00150

Example: see airport list